createdAt,value
2024-02-24T00:00:06.781Z,10.30
2024-02-24T00:00:38.709Z,10.33
2024-02-24T00:01:10.650Z,10.33
2024-02-24T00:01:42.594Z,10.33
2024-02-24T00:02:14.504Z,10.32
2024-02-24T00:02:46.453Z,10.29
2024-02-24T00:03:19.437Z,10.31
2024-02-24T00:03:52.006Z,10.27
2024-02-24T00:04:23.974Z,10.25
2024-02-24T00:04:57.921Z,10.22
2024-02-24T00:05:29.880Z,10.23
2024-02-24T00:06:02.011Z,10.22
2024-02-24T00:06:34.060Z,10.20
2024-02-24T00:07:06.019Z,10.20
2024-02-24T00:07:37.973Z,10.20
2024-02-24T00:08:09.936Z,10.20
2024-02-24T00:08:43.466Z,10.20
2024-02-24T00:09:15.624Z,10.20
2024-02-24T00:09:47.541Z,10.23
2024-02-24T00:10:19.454Z,10.25
2024-02-24T00:10:51.430Z,10.26
2024-02-24T00:11:23.478Z,10.23
2024-02-24T00:11:55.538Z,10.23
2024-02-24T00:12:27.489Z,10.27
2024-02-24T00:12:59.479Z,10.30
2024-02-24T00:13:31.443Z,10.30
2024-02-24T00:14:03.360Z,10.30
2024-02-24T00:14:35.321Z,10.31
2024-02-24T00:15:07.732Z,10.28
2024-02-24T00:15:39.714Z,10.29
2024-02-24T00:16:13.965Z,10.33
2024-02-24T00:16:46.096Z,10.35
2024-02-24T00:17:18.342Z,10.34
2024-02-24T00:17:50.438Z,10.33
2024-02-24T00:18:22.666Z,10.34
2024-02-24T00:18:56.868Z,10.35
2024-02-24T00:19:28.863Z,10.35
2024-02-24T00:20:00.939Z,10.36
2024-02-24T00:20:32.974Z,10.41
2024-02-24T00:21:05.164Z,10.46
2024-02-24T00:21:37.073Z,10.46
2024-02-24T00:22:09.025Z,10.49
2024-02-24T00:22:41.625Z,10.51
2024-02-24T00:23:13.572Z,10.54
2024-02-24T00:23:45.581Z,10.54
2024-02-24T00:24:17.732Z,10.52
2024-02-24T00:24:49.785Z,10.53
2024-02-24T00:25:21.743Z,10.53
2024-02-24T00:25:53.651Z,10.54
2024-02-24T00:26:25.603Z,10.55
2024-02-24T00:26:57.535Z,10.56
2024-02-24T00:27:30.528Z,10.55
2024-02-24T00:28:02.459Z,10.56
2024-02-24T00:28:34.349Z,10.60
2024-02-24T00:29:06.299Z,10.63
2024-02-24T00:29:38.270Z,10.63
2024-02-24T00:30:10.473Z,10.64
2024-02-24T00:30:42.443Z,10.66
2024-02-24T00:31:14.329Z,10.61
2024-02-24T00:31:46.192Z,10.62
2024-02-24T00:32:18.375Z,10.63
2024-02-24T00:32:50.437Z,10.63
2024-02-24T00:33:22.483Z,10.68
2024-02-24T00:33:54.492Z,10.66
2024-02-24T00:34:26.412Z,10.66
2024-02-24T00:34:58.356Z,10.68
2024-02-24T00:35:30.507Z,10.67
2024-02-24T00:36:04.977Z,10.67
2024-02-24T00:36:36.980Z,10.66
2024-02-24T00:37:08.851Z,10.69
2024-02-24T00:37:40.735Z,10.65
2024-02-24T00:38:13.602Z,10.65
2024-02-24T00:38:45.704Z,10.68
2024-02-24T00:39:17.611Z,10.68
2024-02-24T00:39:49.624Z,10.66
2024-02-24T00:40:21.581Z,10.68
2024-02-24T00:40:53.506Z,10.68
2024-02-24T00:41:25.586Z,10.67
2024-02-24T00:41:57.463Z,10.66
2024-02-24T00:42:29.317Z,10.65
2024-02-24T00:43:01.220Z,10.68
2024-02-24T00:43:33.169Z,10.64
2024-02-24T00:44:05.234Z,10.63
2024-02-24T00:44:37.126Z,10.67
2024-02-24T00:45:09.165Z,10.65
2024-02-24T00:45:41.092Z,10.64
2024-02-24T00:46:13.065Z,10.65
2024-02-24T00:46:44.999Z,10.67
2024-02-24T00:47:16.946Z,10.70
2024-02-24T00:47:49.044Z,10.65
2024-02-24T00:48:21.100Z,10.63
2024-02-24T00:48:53.082Z,10.65
2024-02-24T00:49:25.083Z,10.67
2024-02-24T00:49:57.585Z,10.72
2024-02-24T00:50:30.659Z,10.73
2024-02-24T00:51:03.052Z,10.72
2024-02-24T00:51:34.998Z,10.70
2024-02-24T00:52:06.943Z,10.69
2024-02-24T00:52:38.856Z,10.72
2024-02-24T00:53:10.779Z,10.70
2024-02-24T00:53:42.731Z,10.69
2024-02-24T00:54:14.802Z,10.67
2024-02-24T00:54:46.792Z,10.69
2024-02-24T00:55:18.749Z,10.70
2024-02-24T00:55:51.259Z,10.76
2024-02-24T00:56:23.192Z,10.75
2024-02-24T00:56:55.184Z,10.73
2024-02-24T00:57:27.126Z,10.72
2024-02-24T00:57:59.430Z,10.76
2024-02-24T00:58:31.323Z,10.76
2024-02-24T00:59:03.433Z,10.78
2024-02-24T00:59:35.470Z,10.78
2024-02-24T01:00:08.155Z,10.73
2024-02-24T01:00:40.101Z,10.76
2024-02-24T01:01:12.061Z,10.76
2024-02-24T01:01:43.977Z,10.77
2024-02-24T01:02:16.027Z,10.76
2024-02-24T01:02:48.112Z,10.79
2024-02-24T01:03:20.037Z,10.78
2024-02-24T01:03:52.008Z,10.77
2024-02-24T01:04:25.873Z,10.79
2024-02-24T01:04:58.277Z,10.80
2024-02-24T01:05:30.277Z,10.80
2024-02-24T01:06:02.231Z,10.80
2024-02-24T01:06:34.142Z,10.81
2024-02-24T01:07:06.754Z,10.81
2024-02-24T01:07:38.681Z,10.83
2024-02-24T01:08:10.786Z,10.77
2024-02-24T01:08:42.854Z,10.78
2024-02-24T01:09:14.797Z,10.81
2024-02-24T01:09:46.711Z,10.85
2024-02-24T01:10:18.651Z,10.84
2024-02-24T01:10:50.681Z,10.84
2024-02-24T01:11:22.768Z,10.85
2024-02-24T01:11:54.909Z,10.86
2024-02-24T01:12:26.945Z,10.85
2024-02-24T01:12:58.838Z,10.86
2024-02-24T01:13:30.815Z,10.86
2024-02-24T01:14:02.911Z,10.85
2024-02-24T01:14:34.890Z,10.86
2024-02-24T01:15:07.258Z,10.85
2024-02-24T01:15:39.402Z,10.83
2024-02-24T01:16:11.489Z,10.84
2024-02-24T01:16:45.698Z,10.81
2024-02-24T01:17:17.737Z,10.80
2024-02-24T01:17:52.225Z,10.84
2024-02-24T01:18:24.802Z,10.84
2024-02-24T01:18:56.983Z,10.88
2024-02-24T01:19:29.054Z,10.91
2024-02-24T01:20:00.989Z,10.91
2024-02-24T01:20:32.982Z,10.92
2024-02-24T01:21:05.407Z,10.89
2024-02-24T01:21:43.549Z,10.88
2024-02-24T01:22:15.487Z,10.91
2024-02-24T01:22:51.419Z,10.92
2024-02-24T01:23:23.910Z,10.90
2024-02-24T01:23:55.994Z,10.90
2024-02-24T01:24:27.925Z,10.89
2024-02-24T01:24:59.827Z,10.88
2024-02-24T01:25:31.758Z,10.89
2024-02-24T01:26:04.061Z,10.92
2024-02-24T01:26:36.198Z,10.90
2024-02-24T01:27:08.163Z,10.91
2024-02-24T01:27:40.078Z,10.93
2024-02-24T01:28:12.078Z,10.95
2024-02-24T01:28:46.797Z,10.97
2024-02-24T01:29:18.785Z,10.99
2024-02-24T01:29:50.758Z,10.99
2024-02-24T01:30:23.606Z,10.98
2024-02-24T01:30:55.531Z,10.94
2024-02-24T01:31:27.473Z,10.92
2024-02-24T01:32:02.406Z,10.87
2024-02-24T01:32:34.807Z,10.88
2024-02-24T01:33:07.127Z,10.91
2024-02-24T01:33:39.170Z,10.90
2024-02-24T01:34:11.157Z,10.89
2024-02-24T01:34:43.304Z,10.90
2024-02-24T01:35:15.298Z,10.90
2024-02-24T01:35:47.269Z,10.89
2024-02-24T01:36:19.246Z,10.92
2024-02-24T01:36:51.445Z,10.92
2024-02-24T01:37:24.843Z,10.90
2024-02-24T01:37:56.852Z,10.96
2024-02-24T01:38:28.770Z,10.99
2024-02-24T01:39:00.694Z,10.95
2024-02-24T01:39:33.349Z,10.91
2024-02-24T01:40:06.972Z,10.92
2024-02-24T01:40:38.891Z,10.92
2024-02-24T01:41:11.690Z,10.89
2024-02-24T01:41:44.743Z,10.90
2024-02-24T01:42:16.757Z,10.95
2024-02-24T01:42:48.688Z,10.96
2024-02-24T01:43:30.703Z,10.96
2024-02-24T01:44:02.575Z,10.97
2024-02-24T01:44:34.607Z,10.98
2024-02-24T01:45:07.080Z,10.99
2024-02-24T01:45:39.051Z,10.98
2024-02-24T01:46:14.699Z,10.96
2024-02-24T01:46:49.646Z,10.98
2024-02-24T01:47:24.281Z,11.01
2024-02-24T01:47:58.210Z,11.00
2024-02-24T01:48:32.227Z,10.99
2024-02-24T01:49:04.524Z,10.99
2024-02-24T01:49:37.362Z,11.01
2024-02-24T01:50:13.849Z,11.03
2024-02-24T01:50:48.017Z,11.01
2024-02-24T01:51:20.244Z,11.01
2024-02-24T01:51:52.545Z,11.01
2024-02-24T01:52:26.730Z,11.01
2024-02-24T01:52:58.938Z,11.03
2024-02-24T01:53:32.382Z,11.01
2024-02-24T01:54:04.525Z,11.01
2024-02-24T01:54:37.582Z,11.04
2024-02-24T01:55:11.036Z,11.03
2024-02-24T01:55:44.654Z,11.04
2024-02-24T01:56:16.766Z,11.06
2024-02-24T01:56:48.869Z,11.07
2024-02-24T01:57:21.426Z,11.04
2024-02-24T01:57:55.469Z,11.06
2024-02-24T01:58:30.203Z,11.07
2024-02-24T01:59:02.299Z,11.08
2024-02-24T01:59:34.564Z,11.08
2024-02-24T02:00:07.188Z,11.02
2024-02-24T02:00:39.335Z,11.01
2024-02-24T02:01:12.002Z,11.00
2024-02-24T02:01:44.113Z,11.00
2024-02-24T02:02:16.631Z,11.00
2024-02-24T02:02:49.117Z,10.96
2024-02-24T02:03:21.064Z,10.96
2024-02-24T02:03:53.774Z,10.97
2024-02-24T02:04:26.453Z,10.95
2024-02-24T02:04:58.444Z,10.96
2024-02-24T02:05:30.942Z,10.93
2024-02-24T02:06:03.844Z,10.94
2024-02-24T02:06:36.150Z,10.89
2024-02-24T02:07:08.467Z,10.95
2024-02-24T02:07:40.376Z,10.98
2024-02-24T02:08:12.337Z,10.98
2024-02-24T02:08:44.460Z,10.99
2024-02-24T02:09:16.487Z,10.90
2024-02-24T02:09:58.872Z,10.88
2024-02-24T02:10:54.115Z,10.85
2024-02-24T02:11:26.249Z,10.85
2024-02-24T02:12:03.280Z,10.90
2024-02-24T02:12:37.341Z,10.86
2024-02-24T02:13:09.374Z,10.88
2024-02-24T02:13:41.271Z,10.87
2024-02-24T02:14:13.233Z,10.85
2024-02-24T02:14:45.274Z,10.84
2024-02-24T02:15:17.279Z,10.83
2024-02-24T02:15:57.665Z,10.82
2024-02-24T02:16:29.647Z,10.85
2024-02-24T02:17:01.610Z,10.84
2024-02-24T02:17:34.006Z,10.82
2024-02-24T02:18:06.855Z,10.81
2024-02-24T02:18:39.033Z,10.83
2024-02-24T02:19:11.163Z,10.82
2024-02-24T02:19:43.301Z,10.84
2024-02-24T02:20:15.214Z,10.81
2024-02-24T02:20:51.157Z,10.81
2024-02-24T02:21:24.406Z,10.86
2024-02-24T02:22:02.097Z,10.85
2024-02-24T02:22:34.095Z,10.85
2024-02-24T02:23:06.172Z,10.84
2024-02-24T02:23:38.310Z,10.88
2024-02-24T02:24:12.196Z,10.88
2024-02-24T02:24:49.582Z,10.88
2024-02-24T02:25:21.564Z,10.87
2024-02-24T02:25:55.852Z,10.86
2024-02-24T02:26:27.764Z,10.86
2024-02-24T02:26:59.692Z,10.89
2024-02-24T02:27:31.689Z,10.89
2024-02-24T02:28:03.831Z,10.91
2024-02-24T02:28:35.797Z,10.92
2024-02-24T02:29:07.719Z,10.94
2024-02-24T02:29:39.838Z,10.93
2024-02-24T02:30:12.142Z,10.93
2024-02-24T02:30:44.170Z,10.93
2024-02-24T02:31:16.497Z,10.88
2024-02-24T02:31:48.427Z,10.88
2024-02-24T02:32:20.627Z,10.85
2024-02-24T02:32:52.831Z,10.86
2024-02-24T02:33:25.108Z,10.84
2024-02-24T02:33:57.270Z,10.84
2024-02-24T02:34:29.661Z,10.84
2024-02-24T02:35:01.583Z,10.83
2024-02-24T02:35:33.548Z,10.79
2024-02-24T02:36:06.371Z,10.78
2024-02-24T02:36:38.321Z,10.76
2024-02-24T02:37:10.205Z,10.73
2024-02-24T02:37:42.077Z,10.73
2024-02-24T02:38:14.088Z,10.70
2024-02-24T02:38:46.076Z,10.73
2024-02-24T02:39:18.015Z,10.69
2024-02-24T02:39:50.030Z,10.72
2024-02-24T02:40:22.221Z,10.75
2024-02-24T02:40:54.526Z,10.74
2024-02-24T02:41:26.615Z,10.76
2024-02-24T02:41:58.862Z,10.76
2024-02-24T02:42:30.828Z,10.73
2024-02-24T02:43:03.035Z,10.70
2024-02-24T02:43:35.088Z,10.70
2024-02-24T02:44:07.121Z,10.73
2024-02-24T02:44:39.107Z,10.71
2024-02-24T02:45:11.210Z,10.70
2024-02-24T02:45:43.398Z,10.70
2024-02-24T02:46:15.291Z,10.73
2024-02-24T02:46:50.850Z,10.70
2024-02-24T02:47:24.208Z,10.69
2024-02-24T02:47:56.709Z,10.68
2024-02-24T02:48:28.854Z,10.67
2024-02-24T02:49:01.066Z,10.63
2024-02-24T02:49:33.272Z,10.61
2024-02-24T02:50:06.861Z,10.57
2024-02-24T02:50:38.846Z,10.53
2024-02-24T02:51:10.809Z,10.53
2024-02-24T02:51:42.684Z,10.49
2024-02-24T02:52:14.614Z,10.45
2024-02-24T02:52:46.746Z,10.43
2024-02-24T02:53:19.229Z,10.42
2024-02-24T02:53:51.236Z,10.44
2024-02-24T02:54:23.144Z,10.45
2024-02-24T02:54:55.024Z,10.45
2024-02-24T02:55:27.365Z,10.48
2024-02-24T02:55:59.254Z,10.48
2024-02-24T02:56:31.182Z,10.48
2024-02-24T02:57:03.378Z,10.45
2024-02-24T02:57:35.391Z,10.46
2024-02-24T02:58:08.141Z,10.42
2024-02-24T02:58:40.077Z,10.42
2024-02-24T02:59:11.977Z,10.43
2024-02-24T02:59:44.098Z,10.40
2024-02-24T03:00:16.543Z,10.38
2024-02-24T03:00:48.684Z,10.34
2024-02-24T03:01:20.613Z,10.26
2024-02-24T03:01:53.129Z,10.20
2024-02-24T03:02:25.074Z,10.11
2024-02-24T03:02:57.070Z,10.31
2024-02-24T03:03:29.042Z,10.36
2024-02-24T03:04:01.068Z,10.44
2024-02-24T03:04:33.030Z,10.53
2024-02-24T03:05:05.435Z,10.59
2024-02-24T03:05:37.444Z,10.62
2024-02-24T03:06:09.636Z,10.62
2024-02-24T03:06:41.718Z,10.63
2024-02-24T03:07:13.764Z,10.69
2024-02-24T03:07:45.721Z,10.71
2024-02-24T03:08:17.904Z,10.76
2024-02-24T03:08:49.954Z,10.75
2024-02-24T03:09:22.004Z,10.74
2024-02-24T03:09:53.894Z,10.75
2024-02-24T03:10:25.959Z,10.74
2024-02-24T03:10:58.075Z,10.76
2024-02-24T03:11:31.992Z,10.75
2024-02-24T03:12:04.186Z,10.75
2024-02-24T03:12:36.387Z,10.72
2024-02-24T03:13:08.411Z,10.73
2024-02-24T03:13:40.384Z,10.72
2024-02-24T03:14:12.403Z,10.73
2024-02-24T03:14:44.745Z,10.69
2024-02-24T03:15:16.863Z,10.66
2024-02-24T03:15:48.783Z,10.66
2024-02-24T03:16:20.684Z,10.65
2024-02-24T03:16:55.069Z,10.65
2024-02-24T03:17:27.348Z,10.61
2024-02-24T03:17:59.425Z,10.59
2024-02-24T03:18:31.544Z,10.62
2024-02-24T03:19:04.689Z,10.63
2024-02-24T03:19:37.297Z,10.61
2024-02-24T03:20:10.133Z,10.60
2024-02-24T03:20:42.146Z,10.59
2024-02-24T03:21:33.762Z,10.58
2024-02-24T03:22:05.724Z,10.58
2024-02-24T03:22:39.620Z,10.57
2024-02-24T03:23:11.600Z,10.58
2024-02-24T03:23:43.668Z,10.58
2024-02-24T03:24:15.604Z,10.59
2024-02-24T03:24:47.586Z,10.56
2024-02-24T03:25:19.896Z,10.58
2024-02-24T03:25:51.810Z,10.59
2024-02-24T03:26:23.900Z,10.59
2024-02-24T03:26:55.867Z,10.57
2024-02-24T03:27:27.798Z,10.56
2024-02-24T03:27:59.787Z,10.55
2024-02-24T03:28:31.689Z,10.53
2024-02-24T03:29:03.622Z,10.53
2024-02-24T03:29:35.744Z,10.53
2024-02-24T03:30:08.351Z,10.53
2024-02-24T03:30:40.298Z,10.53
2024-02-24T03:31:12.180Z,10.54
2024-02-24T03:31:44.114Z,10.53
2024-02-24T03:32:16.109Z,10.54
2024-02-24T03:32:48.115Z,10.55
2024-02-24T03:33:20.202Z,10.53
2024-02-24T03:33:54.610Z,10.51
2024-02-24T03:34:26.748Z,10.49
2024-02-24T03:34:58.678Z,10.48
2024-02-24T03:35:30.728Z,10.46
2024-02-24T03:36:03.198Z,10.46
2024-02-24T03:36:35.151Z,10.40
2024-02-24T03:37:07.065Z,10.40
2024-02-24T03:37:39.056Z,10.36
2024-02-24T03:38:10.926Z,10.36
2024-02-24T03:38:43.201Z,10.33
2024-02-24T03:39:15.262Z,10.35
2024-02-24T03:39:47.291Z,10.31
2024-02-24T03:40:19.309Z,10.32
2024-02-24T03:40:51.215Z,10.31
2024-02-24T03:41:23.116Z,10.22
2024-02-24T03:41:55.200Z,10.18
2024-02-24T03:42:27.183Z,10.19
2024-02-24T03:43:00.235Z,10.16
2024-02-24T03:43:32.152Z,10.14
2024-02-24T03:44:04.172Z,10.14
2024-02-24T03:44:36.107Z,10.09
2024-02-24T03:45:08.524Z,10.12
2024-02-24T03:45:40.384Z,10.09
2024-02-24T03:46:12.355Z,10.09
2024-02-24T03:46:44.229Z,10.08
2024-02-24T03:47:16.357Z,10.07
2024-02-24T03:47:48.322Z,10.08
2024-02-24T03:48:20.436Z,10.09
2024-02-24T03:48:52.496Z,10.09
2024-02-24T03:49:24.515Z,10.06
2024-02-24T03:49:56.495Z,10.05
2024-02-24T03:50:28.441Z,10.04
2024-02-24T03:51:01.627Z,9.98
2024-02-24T03:51:33.632Z,9.99
2024-02-24T03:52:05.951Z,10.01
2024-02-24T03:52:39.185Z,9.95
2024-02-24T03:53:11.085Z,9.97
2024-02-24T03:53:43.083Z,9.89
2024-02-24T03:54:15.046Z,9.89
2024-02-24T03:54:46.936Z,9.93
2024-02-24T03:55:18.830Z,9.93
2024-02-24T03:55:53.609Z,9.92
2024-02-24T03:56:25.553Z,9.87
2024-02-24T03:56:57.558Z,9.83
2024-02-24T03:57:29.442Z,9.81
2024-02-24T03:58:01.315Z,9.79
2024-02-24T03:58:33.281Z,9.79
2024-02-24T03:59:05.170Z,9.81
2024-02-24T03:59:37.249Z,9.81
2024-02-24T04:00:09.963Z,9.77
2024-02-24T04:00:41.925Z,9.78
2024-02-24T04:01:13.934Z,9.78
2024-02-24T04:01:46.129Z,9.72
2024-02-24T04:02:18.114Z,9.75
2024-02-24T04:02:50.063Z,9.77
2024-02-24T04:03:22.081Z,9.75
2024-02-24T04:03:55.453Z,9.71
2024-02-24T04:04:27.376Z,9.70
2024-02-24T04:05:01.993Z,9.71
2024-02-24T04:05:34.042Z,9.73
2024-02-24T04:06:07.284Z,9.69
2024-02-24T04:06:39.288Z,9.71
2024-02-24T04:07:11.729Z,9.72
2024-02-24T04:07:43.655Z,9.70
2024-02-24T04:08:16.238Z,9.68
2024-02-24T04:08:48.380Z,9.69
2024-02-24T04:09:20.352Z,9.70
2024-02-24T04:09:52.354Z,9.67
2024-02-24T04:10:24.341Z,9.70
2024-02-24T04:10:56.305Z,9.68
2024-02-24T04:11:28.326Z,9.70
2024-02-24T04:12:00.388Z,9.68
2024-02-24T04:12:32.745Z,9.69
2024-02-24T04:13:04.794Z,9.67
2024-02-24T04:13:36.676Z,9.69
2024-02-24T04:14:08.664Z,9.73
2024-02-24T04:14:40.670Z,9.78
2024-02-24T04:15:16.583Z,9.76
2024-02-24T04:15:49.337Z,9.74
2024-02-24T04:16:21.485Z,9.79
2024-02-24T04:16:53.421Z,9.80
2024-02-24T04:17:25.353Z,9.82
2024-02-24T04:17:57.549Z,9.83
2024-02-24T04:18:29.589Z,9.91
2024-02-24T04:19:02.325Z,9.94
2024-02-24T04:19:34.409Z,9.96
2024-02-24T04:20:07.091Z,9.99
2024-02-24T04:20:38.997Z,10.02
2024-02-24T04:21:10.908Z,10.09
2024-02-24T04:21:42.810Z,10.12
2024-02-24T04:22:14.681Z,10.13
2024-02-24T04:22:46.658Z,10.13
2024-02-24T04:23:18.633Z,10.15
2024-02-24T04:23:52.170Z,10.12
2024-02-24T04:24:24.342Z,10.13
2024-02-24T04:24:56.349Z,10.11
2024-02-24T04:25:28.275Z,10.13
2024-02-24T04:26:00.337Z,10.13
2024-02-24T04:26:32.404Z,10.12
2024-02-24T04:27:04.579Z,10.15
2024-02-24T04:27:37.433Z,10.14
2024-02-24T04:28:13.451Z,10.16
2024-02-24T04:28:45.359Z,10.19
2024-02-24T04:29:17.355Z,10.17
2024-02-24T04:29:49.302Z,10.13
2024-02-24T04:30:21.344Z,10.11
2024-02-24T04:30:53.302Z,10.15
2024-02-24T04:31:25.219Z,10.19
2024-02-24T04:31:57.174Z,10.19
2024-02-24T04:32:29.972Z,10.22
2024-02-24T04:33:02.263Z,10.23
2024-02-24T04:33:34.380Z,10.24
2024-02-24T04:34:06.445Z,10.25
2024-02-24T04:34:39.411Z,10.26
2024-02-24T04:35:12.499Z,10.25
2024-02-24T04:35:44.395Z,10.27
2024-02-24T04:36:16.344Z,10.26
2024-02-24T04:36:48.488Z,10.26
2024-02-24T04:37:20.476Z,10.29
2024-02-24T04:37:52.386Z,10.34
2024-02-24T04:38:24.362Z,10.34
2024-02-24T04:38:56.363Z,10.32
2024-02-24T04:39:28.265Z,10.33
2024-02-24T04:40:00.271Z,10.34
2024-02-24T04:40:32.251Z,10.33
2024-02-24T04:41:04.293Z,10.30
2024-02-24T04:41:37.050Z,10.29
2024-02-24T04:42:09.021Z,10.30
2024-02-24T04:42:40.915Z,10.33
2024-02-24T04:43:12.884Z,10.35
2024-02-24T04:43:44.862Z,10.34
2024-02-24T04:44:16.811Z,10.33
2024-02-24T04:44:50.913Z,10.37
2024-02-24T04:45:22.859Z,10.37
2024-02-24T04:45:54.779Z,10.35
2024-02-24T04:46:26.671Z,10.34
2024-02-24T04:46:58.673Z,10.32
2024-02-24T04:47:30.705Z,10.27
2024-02-24T04:48:02.889Z,10.26
2024-02-24T04:48:35.036Z,10.29
2024-02-24T04:49:07.124Z,10.26
2024-02-24T04:49:39.183Z,10.25
2024-02-24T04:50:11.313Z,10.19
2024-02-24T04:50:43.368Z,10.19
2024-02-24T04:51:15.304Z,10.18
2024-02-24T04:51:47.213Z,10.20
2024-02-24T04:52:19.323Z,10.17
2024-02-24T04:52:51.881Z,10.11
2024-02-24T04:53:23.835Z,10.10
2024-02-24T04:53:55.825Z,10.06
2024-02-24T04:54:27.673Z,10.07
2024-02-24T04:54:59.580Z,10.04
2024-02-24T04:55:31.569Z,10.01
2024-02-24T04:56:03.694Z,9.94
2024-02-24T04:56:35.802Z,9.95
2024-02-24T04:57:07.876Z,9.94
2024-02-24T04:57:39.799Z,9.97
2024-02-24T04:58:11.741Z,9.96
2024-02-24T04:58:44.239Z,9.96
2024-02-24T04:59:16.189Z,9.94
2024-02-24T04:59:48.278Z,9.91
2024-02-24T05:00:20.443Z,9.87
2024-02-24T05:00:52.497Z,9.89
2024-02-24T05:01:24.454Z,9.87
2024-02-24T05:01:56.387Z,9.88
2024-02-24T05:02:28.341Z,9.85
2024-02-24T05:03:00.317Z,9.84
2024-02-24T05:03:32.223Z,9.81
2024-02-24T05:04:04.164Z,9.85
2024-02-24T05:04:36.113Z,9.83
2024-02-24T05:05:08.694Z,9.78
2024-02-24T05:05:42.578Z,9.82
2024-02-24T05:06:14.802Z,9.84
2024-02-24T05:06:46.802Z,9.85
2024-02-24T05:07:18.769Z,9.84
2024-02-24T05:07:50.679Z,9.84
2024-02-24T05:08:22.763Z,9.85
2024-02-24T05:08:54.801Z,9.80
2024-02-24T05:09:26.866Z,9.82
2024-02-24T05:09:58.993Z,9.86
2024-02-24T05:10:30.927Z,9.85
2024-02-24T05:11:02.851Z,9.85
2024-02-24T05:11:34.890Z,9.85
2024-02-24T05:12:07.177Z,9.84
2024-02-24T05:12:39.238Z,9.85
2024-02-24T05:13:11.121Z,9.88
2024-02-24T05:13:43.063Z,9.89
2024-02-24T05:14:18.682Z,9.85
2024-02-24T05:14:50.737Z,9.90
2024-02-24T05:15:22.757Z,9.90
2024-02-24T05:15:54.646Z,9.90
2024-02-24T05:16:26.570Z,9.94
2024-02-24T05:16:58.495Z,9.98
2024-02-24T05:17:30.579Z,10.00
2024-02-24T05:18:02.922Z,10.04
2024-02-24T05:18:35.073Z,10.04
2024-02-24T05:19:07.455Z,10.08
2024-02-24T05:19:39.406Z,10.15
2024-02-24T05:20:13.978Z,10.18
2024-02-24T05:20:46.143Z,10.14
2024-02-24T05:21:22.325Z,10.16
2024-02-24T05:21:56.255Z,10.18
2024-02-24T05:22:28.531Z,10.16
2024-02-24T05:23:02.151Z,10.16
2024-02-24T05:23:34.123Z,10.16
2024-02-24T05:24:07.237Z,10.20
2024-02-24T05:24:39.320Z,10.20
2024-02-24T05:25:11.306Z,10.24
2024-02-24T05:25:43.975Z,10.23
2024-02-24T05:26:27.183Z,10.24
2024-02-24T05:26:59.530Z,10.25
2024-02-24T05:27:34.422Z,10.23
2024-02-24T05:28:06.491Z,10.21
2024-02-24T05:28:38.440Z,10.23
2024-02-24T05:29:10.386Z,10.19
2024-02-24T05:29:47.476Z,10.20
2024-02-24T05:30:19.691Z,10.19
2024-02-24T05:30:51.759Z,10.17
2024-02-24T05:31:24.404Z,10.14
2024-02-24T05:31:56.480Z,10.19
2024-02-24T05:32:28.537Z,10.19
2024-02-24T05:33:00.601Z,10.19
2024-02-24T05:33:32.687Z,10.19
2024-02-24T05:34:04.723Z,10.18
2024-02-24T05:34:36.710Z,10.18
2024-02-24T05:35:09.248Z,10.16
2024-02-24T05:35:41.261Z,10.18
2024-02-24T05:36:15.159Z,10.16
2024-02-24T05:36:47.168Z,10.20
2024-02-24T05:37:19.227Z,10.22
2024-02-24T05:37:51.350Z,10.23
2024-02-24T05:38:23.271Z,10.20
2024-02-24T05:38:55.250Z,10.19
2024-02-24T05:39:27.230Z,10.17
2024-02-24T05:39:59.751Z,10.16
2024-02-24T05:40:31.744Z,10.17
2024-02-24T05:41:04.055Z,10.14
2024-02-24T05:41:36.205Z,10.19
2024-02-24T05:42:08.506Z,10.21
2024-02-24T05:42:42.673Z,10.20
2024-02-24T05:43:14.599Z,10.22
2024-02-24T05:43:46.474Z,10.23
2024-02-24T05:44:18.726Z,10.22
2024-02-24T05:44:50.721Z,10.23
2024-02-24T05:45:22.672Z,10.23
2024-02-24T05:46:00.508Z,10.23
2024-02-24T05:46:33.985Z,10.25
2024-02-24T05:47:06.270Z,10.25
2024-02-24T05:47:38.566Z,10.26
2024-02-24T05:48:10.692Z,10.25
2024-02-24T05:48:42.781Z,10.26
2024-02-24T05:49:14.786Z,10.25
2024-02-24T05:49:46.733Z,10.26
2024-02-24T05:50:18.689Z,10.30
2024-02-24T05:50:50.859Z,10.29
2024-02-24T05:51:22.943Z,10.27
2024-02-24T05:51:54.877Z,10.31
2024-02-24T05:52:26.763Z,10.33
2024-02-24T05:52:58.707Z,10.34
2024-02-24T05:53:30.549Z,10.34
2024-02-24T05:54:02.517Z,10.33
2024-02-24T05:54:34.461Z,10.37
2024-02-24T05:55:09.082Z,10.37
2024-02-24T05:55:44.391Z,10.35
2024-02-24T05:56:17.153Z,10.36
2024-02-24T05:56:49.172Z,10.35
2024-02-24T05:57:21.084Z,10.37
2024-02-24T05:57:53.000Z,10.37
2024-02-24T05:58:24.961Z,10.40
2024-02-24T05:58:56.896Z,10.39
2024-02-24T05:59:29.498Z,10.39
2024-02-24T06:00:01.601Z,10.40
2024-02-24T06:00:33.528Z,10.41
2024-02-24T06:01:05.557Z,10.41
2024-02-24T06:01:37.518Z,10.43
2024-02-24T06:02:09.597Z,10.43
2024-02-24T06:02:41.672Z,10.42
2024-02-24T06:03:13.713Z,10.43
2024-02-24T06:03:45.950Z,10.44
2024-02-24T06:04:19.023Z,10.42
2024-02-24T06:04:51.946Z,10.42
2024-02-24T06:05:23.926Z,10.45
2024-02-24T06:05:56.001Z,10.42
2024-02-24T06:06:28.793Z,10.43
2024-02-24T06:07:00.862Z,10.43
2024-02-24T06:07:33.407Z,10.44
2024-02-24T06:08:06.507Z,10.45
2024-02-24T06:08:38.636Z,10.45
2024-02-24T06:09:11.371Z,10.42
2024-02-24T06:09:43.377Z,10.43
2024-02-24T06:10:15.333Z,10.40
2024-02-24T06:10:48.371Z,10.39
2024-02-24T06:11:20.435Z,10.38
2024-02-24T06:11:52.485Z,10.35
2024-02-24T06:12:24.868Z,10.38
2024-02-24T06:12:56.789Z,10.37
2024-02-24T06:13:28.686Z,10.35
2024-02-24T06:14:00.602Z,10.34
2024-02-24T06:14:32.526Z,10.33
2024-02-24T06:15:04.772Z,10.34
2024-02-24T06:15:36.660Z,10.30
2024-02-24T06:16:08.937Z,10.30
2024-02-24T06:16:40.839Z,10.29
2024-02-24T06:17:12.878Z,10.29
2024-02-24T06:17:44.893Z,10.29
2024-02-24T06:18:17.184Z,10.32
2024-02-24T06:18:49.425Z,10.31
2024-02-24T06:19:21.453Z,10.28
2024-02-24T06:19:53.403Z,10.29
2024-02-24T06:20:25.517Z,10.26
2024-02-24T06:20:57.768Z,10.26
2024-02-24T06:21:33.520Z,10.25
2024-02-24T06:22:05.523Z,10.27
2024-02-24T06:22:37.419Z,10.25
2024-02-24T06:23:09.326Z,10.26
2024-02-24T06:23:41.336Z,10.21
2024-02-24T06:24:13.625Z,10.26
2024-02-24T06:24:45.514Z,10.23
2024-02-24T06:25:17.657Z,10.27
2024-02-24T06:25:49.611Z,10.26
2024-02-24T06:26:21.492Z,10.26
2024-02-24T06:26:53.463Z,10.25
2024-02-24T06:27:25.896Z,10.27
2024-02-24T06:27:57.984Z,10.25
2024-02-24T06:28:30.203Z,10.23
2024-02-24T06:29:02.085Z,10.21
2024-02-24T06:29:34.201Z,10.20
2024-02-24T06:30:07.503Z,10.23
2024-02-24T06:30:39.727Z,10.23
2024-02-24T06:31:12.578Z,10.24
2024-02-24T06:31:44.495Z,10.27
2024-02-24T06:32:16.388Z,10.31
2024-02-24T06:32:48.821Z,10.32
2024-02-24T06:33:20.930Z,10.29
2024-02-24T06:33:52.978Z,10.31
2024-02-24T06:34:25.022Z,10.29
2024-02-24T06:34:57.017Z,10.33
2024-02-24T06:35:28.909Z,10.31
2024-02-24T06:36:00.953Z,10.32
2024-02-24T06:36:32.831Z,10.33
2024-02-24T06:37:04.849Z,10.34
2024-02-24T06:37:36.786Z,10.37
2024-02-24T06:38:08.780Z,10.35
2024-02-24T06:38:40.762Z,10.36
2024-02-24T06:39:12.874Z,10.35
2024-02-24T06:39:44.855Z,10.34
2024-02-24T06:40:25.911Z,10.31
2024-02-24T06:41:05.094Z,10.34
2024-02-24T06:41:37.029Z,10.33
2024-02-24T06:42:08.990Z,10.34
2024-02-24T06:42:40.900Z,10.33
2024-02-24T06:43:13.122Z,10.35
2024-02-24T06:43:45.858Z,10.33
2024-02-24T06:44:18.540Z,10.35
2024-02-24T06:44:50.466Z,10.37
2024-02-24T06:45:22.468Z,10.33
2024-02-24T06:45:54.446Z,10.32
2024-02-24T06:46:29.042Z,10.31
2024-02-24T06:47:04.438Z,10.27
2024-02-24T06:47:41.010Z,10.27
2024-02-24T06:48:13.071Z,10.27
2024-02-24T06:48:47.787Z,10.30
2024-02-24T06:49:20.625Z,10.28
2024-02-24T06:49:52.853Z,10.27
2024-02-24T06:50:24.845Z,10.31
2024-02-24T06:50:56.814Z,10.31
2024-02-24T06:51:28.713Z,10.33
2024-02-24T06:52:00.691Z,10.34
2024-02-24T06:52:32.594Z,10.36
2024-02-24T06:53:06.923Z,10.33
2024-02-24T06:53:38.851Z,10.32
2024-02-24T06:54:10.847Z,10.32
2024-02-24T06:54:42.849Z,10.33
2024-02-24T06:55:14.877Z,10.36
2024-02-24T06:55:46.780Z,10.38
2024-02-24T06:56:21.696Z,10.37
2024-02-24T06:56:53.729Z,10.38
2024-02-24T06:57:25.747Z,10.36
2024-02-24T06:57:57.742Z,10.37
2024-02-24T06:58:29.671Z,10.38
2024-02-24T06:59:07.164Z,10.40
2024-02-24T06:59:39.202Z,10.39